Terminal Aerodrome Forecast
Issued by NWS

Home | Current Version | Previous Version | Text Only | Print | Product List | Glossary On
Versions: 1 2 3 4 5 6 7 8 9 10 11 12 13 14 15 16 17 18 19 20 21 22 23 24 25 26 27 28 29 30
316
FTUS44 KOUN 221120
TAFWWR
TAF
KWWR 221120Z 2212/2312 33008KT P6SM SCT008 OVC024
     FM221400 34015G24KT P6SM SCT018 OVC025
      TEMPO 2214/2218 SCT035
     FM222000 35016G22KT P6SM BKN040
     FM230000 01010KT P6SM SCT050 SCT250=

USA.gov is the U.S. government's official web portal to all federal, state and local government web resources and services.